Time;durP1;ratioP1;P1;durP2;ratioP2;P2;SDS_P1;SDS_P2;PMS_P1;PMS_P2;Temp;Humidity;BMP_temperature;BMP_pressure;BME280_temperature;BME280_humidity;BME280_pressure;Samples;Min_cycle;Max_cycle;Signal;HPM_P1;HPM_P2
2022/03/05 00:02:01;;;;;;;35.00;19.02;;;-1.80;99.30;;;;;;5061658;28;20409;-59
2022/03/05 00:04:28;;;;;;;38.88;21.45;;;-1.80;99.90;;;;;;5054357;28;20275;-59
2022/03/05 00:06:54;;;;;;;40.47;19.67;;;-1.90;99.90;;;;;;5055397;28;20144;-59
2022/03/05 00:09:27;;;;;;;38.47;21.35;;;-1.90;99.90;;;;;;5054979;28;20106;-59
2022/03/05 00:11:53;;;;;;;;;;;-2.00;99.90;;;;;;5056090;28;20702;-59
2022/03/05 00:14:20;;;;;;;42.08;18.90;;;-2.00;99.90;;;;;;5054851;28;19924;-58
2022/03/05 00:16:47;;;;;;;;;;;-2.00;99.90;;;;;;5056089;28;20053;-59
2022/03/05 00:19:14;;;;;;;52.40;19.75;;;-2.00;99.90;;;;;;5055994;28;19924;-59
2022/03/05 00:21:40;;;;;;;;;;;-2.00;99.90;;;;;;5055683;28;20411;-59
2022/03/05 00:24:07;;;;;;;43.58;21.13;;;-2.10;99.90;;;;;;5054477;28;19928;-58
2022/03/05 00:26:34;;;;;;;43.80;21.90;;;-2.10;99.90;;;;;;5055839;28;20059;-59
2022/03/05 00:29:02;;;;;;;38.28;19.90;;;-2.10;99.90;;;;;;5052874;28;20047;-59
2022/03/05 00:31:28;;;;;;;;;;;-2.10;99.90;;;;;;5055850;28;20044;-59
2022/03/05 00:33:55;;;;;;;39.92;19.67;;;-2.10;99.90;;;;;;5060129;28;20290;-59
2022/03/05 00:36:23;;;;;;;40.78;20.50;;;-2.10;99.90;;;;;;5054775;28;20040;-59
2022/03/05 00:38:50;;;;;;;40.03;20.08;;;-2.20;99.90;;;;;;5066853;28;20789;-59
2022/03/05 00:41:16;;;;;;;;;;;-2.20;99.90;;;;;;5074593;28;20072;-59
2022/03/05 00:43:43;;;;;;;38.30;19.33;;;-2.30;99.90;;;;;;5073736;28;19924;-59
2022/03/05 00:46:10;;;;;;;41.90;20.67;;;-2.30;99.90;;;;;;5075139;28;20105;-59
2022/03/05 00:48:37;;;;;;;41.53;20.85;;;-2.30;99.90;;;;;;5075655;28;20044;-59
2022/03/05 00:51:04;;;;;;;42.30;21.67;;;-2.30;99.90;;;;;;5072539;28;20036;-60
2022/03/05 00:53:31;;;;;;;37.42;20.45;;;-2.30;99.90;;;;;;5040122;28;20041;-58
2022/03/05 00:55:58;;;;;;;38.90;20.23;;;-2.40;99.90;;;;;;5034242;28;20057;-59
2022/03/05 00:58:25;;;;;;;;;;;-2.40;99.90;;;;;;5034936;28;20120;-59
2022/03/05 01:00:52;;;;;;;38.13;18.45;;;-2.40;99.90;;;;;;5050936;28;19924;-58
2022/03/05 01:03:20;;;;;;;45.65;20.98;;;-2.30;99.90;;;;;;5044970;28;20063;-60
2022/03/05 01:05:47;;;;;;;47.92;23.95;;;-2.40;99.90;;;;;;5033896;28;20644;-59
2022/03/05 01:08:14;;;;;;;38.97;19.35;;;-2.40;99.90;;;;;;5033271;28;20159;-59
2022/03/05 01:10:41;;;;;;;37.15;18.70;;;-2.40;99.90;;;;;;5034656;28;20059;-59
2022/03/05 01:13:09;;;;;;;40.10;19.30;;;-2.40;99.90;;;;;;5033449;28;20048;-59
2022/03/05 01:15:36;;;;;;;38.72;20.73;;;-2.40;99.90;;;;;;5034731;28;20045;-59
2022/03/05 01:18:04;;;;;;;34.17;17.45;;;-2.40;99.90;;;;;;5033328;28;20443;-58
2022/03/05 01:20:31;;;;;;;34.15;19.05;;;-2.30;99.90;;;;;;5032705;28;20045;-59
2022/03/05 01:22:57;;;;;;;35.28;18.17;;;-2.40;99.90;;;;;;5033335;28;20106;-59
2022/03/05 01:25:24;;;;;;;;;;;-2.40;99.90;;;;;;5035159;28;20053;-59
2022/03/05 01:27:51;;;;;;;41.63;19.35;;;-2.40;99.90;;;;;;5033810;28;19924;-58
2022/03/05 01:30:18;;;;;;;39.17;19.27;;;-2.40;99.90;;;;;;5034284;28;20091;-59
2022/03/05 01:32:44;;;;;;;;;;;-2.40;99.90;;;;;;5035046;28;20047;-59
2022/03/05 01:35:12;;;;;;;35.58;19.33;;;-2.40;99.90;;;;;;5057976;28;19928;-59
2022/03/05 01:37:39;;;;;;;38.90;19.67;;;-2.40;99.90;;;;;;5056185;28;20823;-59
2022/03/05 01:40:06;;;;;;;42.53;21.02;;;-2.50;99.90;;;;;;5073815;28;20048;-59
2022/03/05 01:42:33;;;;;;;39.70;19.48;;;-2.40;99.90;;;;;;5073960;28;20048;-59
2022/03/05 01:44:59;;;;;;;39.25;19.35;;;-2.50;99.90;;;;;;5072715;28;20040;-59
2022/03/05 01:47:26;;;;;;;;;;;-2.40;99.90;;;;;;5075046;28;20048;-59
2022/03/05 01:49:53;;;;;;;39.22;20.98;;;-2.50;99.90;;;;;;5073695;28;19981;-59
2022/03/05 01:52:20;;;;;;;38.40;19.80;;;-2.50;99.90;;;;;;5055563;28;20106;-60
2022/03/05 01:54:48;;;;;;;37.92;18.75;;;-2.50;99.90;;;;;;5032864;28;20045;-59
2022/03/05 01:57:14;;;;;;;42.38;20.77;;;-2.60;99.90;;;;;;5031783;28;20514;-59
2022/03/05 01:59:41;;;;;;;;;;;-2.60;99.90;;;;;;5034640;28;20118;-59
2022/03/05 02:02:08;;;;;;;44.92;21.88;;;-2.70;99.90;;;;;;5065989;28;20006;-58
2022/03/05 02:04:35;;;;;;;38.08;18.83;;;-2.70;99.90;;;;;;5072669;28;20050;-60
2022/03/05 02:07:03;;;;;;;42.97;21.00;;;-2.70;99.90;;;;;;5073649;28;20414;-59
2022/03/05 02:09:30;;;;;;;36.72;21.00;;;-2.70;99.90;;;;;;5073847;28;20122;-59
2022/03/05 02:11:56;;;;;;;;;;;-2.80;99.90;;;;;;5073915;28;20047;-59
2022/03/05 02:14:23;;;;;;;39.22;20.67;;;-2.80;99.90;;;;;;5072984;28;20005;-59
2022/03/05 02:16:50;;;;;;;39.88;20.25;;;-2.80;99.90;;;;;;5073553;28;20040;-58
2022/03/05 02:19:17;;;;;;;44.00;20.05;;;-2.80;99.90;;;;;;5073122;28;20047;-59
2022/03/05 02:21:47;;;;;;;44.28;21.58;;;-2.80;99.90;;;;;;5073779;28;20044;-59
2022/03/05 02:24:31;;;;;;;40.55;21.40;;;-2.80;99.90;;;;;;5072572;28;20060;-58
2022/03/05 02:26:59;;;;;;;45.65;20.55;;;-2.90;99.90;;;;;;5073257;28;20055;-59
2022/03/05 02:29:26;;;;;;;40.10;19.77;;;-2.90;99.90;;;;;;5071927;28;20047;-59
2022/03/05 02:31:54;;;;;;;39.55;19.48;;;-3.00;99.90;;;;;;5074776;28;20047;-59
2022/03/05 02:34:21;;;;;;;36.10;19.38;;;-3.00;99.90;;;;;;5069893;28;20115;-59
2022/03/05 02:36:49;;;;;;;39.00;19.48;;;-3.00;99.90;;;;;;5077527;28;20064;-59
2022/03/05 02:39:16;;;;;;;35.25;18.75;;;-3.00;99.90;;;;;;5056417;28;20841;-59
2022/03/05 02:41:43;;;;;;;34.85;18.58;;;-3.00;99.90;;;;;;5051560;28;20521;-59
2022/03/05 02:44:11;;;;;;;35.58;18.10;;;-3.00;99.90;;;;;;5036371;28;20692;-59
2022/03/05 02:46:37;;;;;;;36.25;18.75;;;-3.10;99.90;;;;;;5037001;28;20069;-59
2022/03/05 02:49:04;;;;;;;;;;;-3.10;99.90;;;;;;5037783;28;20561;-59
2022/03/05 02:51:31;;;;;;;41.38;19.48;;;-3.10;99.90;;;;;;5048114;28;19920;-59
2022/03/05 02:53:58;;;;;;;37.72;17.92;;;-3.10;99.90;;;;;;5058435;28;20731;-58
2022/03/05 02:56:25;;;;;;;45.22;21.20;;;-3.10;99.90;;;;;;5056654;28;20041;-59
2022/03/05 02:58:52;;;;;;;40.30;18.88;;;-3.10;99.90;;;;;;5057261;28;20134;-59
2022/03/05 03:01:18;;;;;;;36.28;19.08;;;-3.10;99.90;;;;;;5059392;28;20057;-58
2022/03/05 03:03:46;;;;;;;42.70;21.17;;;-3.10;99.90;;;;;;5035510;28;20122;-59
2022/03/05 03:06:12;;;;;;;37.53;19.30;;;-3.10;99.90;;;;;;5036550;28;20395;-59
2022/03/05 03:08:39;;;;;;;36.33;19.42;;;-3.10;99.90;;;;;;5036794;28;20701;-59
2022/03/05 03:11:06;;;;;;;;;;;-3.10;99.90;;;;;;5036938;28;20045;-59
2022/03/05 03:13:33;;;;;;;37.97;19.17;;;-3.20;99.90;;;;;;5035950;28;19955;-59
2022/03/05 03:16:00;;;;;;;35.45;18.45;;;-3.10;99.90;;;;;;5034889;28;20152;-59
2022/03/05 03:18:27;;;;;;;35.03;18.15;;;-3.10;99.90;;;;;;5036780;28;20041;-59
2022/03/05 03:20:54;;;;;;;36.65;19.40;;;-3.10;99.90;;;;;;5036400;28;20056;-59
2022/03/05 03:23:20;;;;;;;;;;;-3.10;99.90;;;;;;5036921;28;20048;-59
2022/03/05 03:25:47;;;;;;;36.60;17.52;;;-3.20;99.90;;;;;;5035663;28;19978;-58
2022/03/05 03:28:14;;;;;;;44.33;19.35;;;-3.20;99.90;;;;;;5036392;28;20702;-59
2022/03/05 03:30:41;;;;;;;37.88;18.38;;;-3.30;99.90;;;;;;5036216;28;20079;-58
2022/03/05 03:33:08;;;;;;;34.95;18.23;;;-3.30;99.90;;;;;;5040652;28;20407;-59
2022/03/05 03:35:36;;;;;;;33.47;17.50;;;-3.30;99.90;;;;;;5058793;28;20498;-59
2022/03/05 03:38:03;;;;;;;38.55;19.45;;;-3.30;99.90;;;;;;5060064;28;20085;-59
2022/03/05 03:40:30;;;;;;;34.53;18.35;;;-3.30;99.90;;;;;;5076511;28;20044;-59
2022/03/05 03:42:57;;;;;;;39.35;19.73;;;-3.30;99.90;;;;;;5075230;28;20048;-59
2022/03/05 03:45:23;;;;;;;39.40;20.30;;;-3.30;99.90;;;;;;5075915;28;20501;-59
2022/03/05 03:47:52;;;;;;;37.67;20.38;;;-3.40;99.90;;;;;;5075416;28;20051;-59
2022/03/05 03:50:22;;;;;;;40.13;20.23;;;-3.40;99.90;;;;;;5076693;28;20137;-59
2022/03/05 03:52:49;;;;;;;40.00;20.27;;;-3.30;99.90;;;;;;5050891;28;20106;-59
2022/03/05 03:55:19;;;;;;;35.92;19.10;;;-3.40;99.90;;;;;;5034701;28;20099;-59
2022/03/05 03:57:46;;;;;;;36.40;21.08;;;-3.40;99.90;;;;;;5036157;28;20086;-59
2022/03/05 04:00:15;;;;;;;38.20;18.80;;;-3.40;99.90;;;;;;5041805;28;20117;-58
2022/03/05 04:02:42;;;;;;;35.47;17.58;;;-3.40;99.90;;;;;;5071189;28;20052;-59
2022/03/05 04:05:11;;;;;;;36.17;19.55;;;-3.50;99.90;;;;;;5073683;28;20055;-58
2022/03/05 04:10:23;;;;;;;36.15;18.27;;;-3.60;99.90;;;;;;5075402;28;20097;-59
2022/03/05 04:12:50;;;;;;;44.58;19.73;;;-3.60;99.90;;;;;;5076079;28;20044;-59
2022/03/05 04:15:17;;;;;;;35.30;16.95;;;-3.60;99.90;;;;;;5074430;28;20044;-59
2022/03/05 04:17:45;;;;;;;40.33;20.83;;;-3.70;99.90;;;;;;5075237;28;20040;-59
2022/03/05 04:20:12;;;;;;;32.53;16.70;;;-3.70;99.90;;;;;;5075837;28;20113;-59
2022/03/05 04:22:39;;;;;;;30.90;17.95;;;-3.70;99.90;;;;;;5074973;28;20048;-59
2022/03/05 04:25:06;;;;;;;39.97;18.98;;;-3.80;99.90;;;;;;5074487;28;20054;-59
2022/03/05 04:27:33;;;;;;;34.72;19.50;;;-3.80;99.90;;;;;;5073527;28;20052;-59
2022/03/05 04:30:01;;;;;;;39.78;20.20;;;-3.80;99.90;;;;;;5075776;28;20048;-59
2022/03/05 04:32:27;;;;;;;36.53;19.58;;;-3.80;99.90;;;;;;5074995;28;20529;-59
2022/03/05 04:34:54;;;;;;;;;;;-3.80;99.90;;;;;;5068839;28;20044;-59
2022/03/05 04:37:21;;;;;;;38.45;18.63;;;-3.80;99.90;;;;;;5075467;28;19926;-59
2022/03/05 04:39:48;;;;;;;40.85;19.38;;;-3.80;99.90;;;;;;5034791;28;20060;-59
2022/03/05 04:42:15;;;;;;;42.63;20.38;;;-3.90;99.90;;;;;;5035463;28;20045;-59
2022/03/05 04:44:41;;;;;;;36.33;19.10;;;-3.90;99.90;;;;;;5033721;28;20111;-59
2022/03/05 04:47:09;;;;;;;36.20;18.67;;;-3.90;99.90;;;;;;5034981;28;20049;-60
2022/03/05 04:49:36;;;;;;;42.85;21.42;;;-4.00;99.90;;;;;;5034713;28;20689;-59
2022/03/05 04:52:03;;;;;;;;;;;-4.00;99.90;;;;;;5053069;28;20153;-59
2022/03/05 04:54:30;;;;;;;44.30;21.93;;;-4.00;99.90;;;;;;5052823;28;19998;-59
2022/03/05 04:56:57;;;;;;;38.17;19.45;;;-4.00;99.90;;;;;;5055283;28;20486;-59
2022/03/05 04:59:24;;;;;;;38.72;20.30;;;-4.00;99.90;;;;;;5054691;28;20045;-59
2022/03/05 05:01:52;;;;;;;41.22;18.30;;;-4.00;99.90;;;;;;5060878;28;20542;-59
2022/03/05 05:04:19;;;;;;;40.25;20.77;;;-4.00;99.90;;;;;;5054226;28;20055;-59
2022/03/05 05:06:46;;;;;;;40.22;20.58;;;-4.00;99.90;;;;;;5054323;28;20554;-61
2022/03/05 05:09:13;;;;;;;41.63;20.55;;;-4.00;99.90;;;;;;5054355;28;20040;-61
2022/03/05 05:11:40;;;;;;;43.28;21.90;;;-4.00;99.90;;;;;;5053814;28;20068;-61
2022/03/05 05:14:08;;;;;;;41.30;20.52;;;-4.00;99.90;;;;;;5054038;28;20052;-60
2022/03/05 05:16:34;;;;;;;41.10;20.05;;;-4.00;99.90;;;;;;5053479;28;20566;-61
2022/03/05 05:21:47;;;;;;;44.22;21.10;;;-4.10;99.90;;;;;;5053839;28;20076;-61
2022/03/05 05:24:14;;;;;;;40.58;19.67;;;-4.10;99.90;;;;;;5051670;28;20048;-61
2022/03/05 05:26:41;;;;;;;37.85;18.30;;;-4.10;99.90;;;;;;5053866;28;20044;-61
2022/03/05 05:29:08;;;;;;;38.30;19.92;;;-4.10;99.90;;;;;;5054183;28;20048;-61
2022/03/05 05:31:57;;;;;;;42.90;20.90;;;-4.00;99.90;;;;;;5035221;28;20811;-61
2022/03/05 05:34:24;;;;;;;41.03;19.80;;;-4.00;99.90;;;;;;5052661;28;20200;-60
2022/03/05 05:36:51;;;;;;;35.00;18.35;;;-4.00;99.90;;;;;;5052366;28;20047;-61
2022/03/05 05:39:19;;;;;;;40.20;19.63;;;-4.00;99.90;;;;;;5069194;28;20432;-60
2022/03/05 05:41:46;;;;;;;39.65;18.17;;;-4.00;99.90;;;;;;5074168;28;20056;-61
2022/03/05 05:44:13;;;;;;;37.90;18.75;;;-4.00;99.90;;;;;;5071226;28;20155;-61
2022/03/05 05:46:40;;;;;;;41.35;19.65;;;-4.10;99.90;;;;;;5073446;28;20128;-60
2022/03/05 05:49:07;;;;;;;35.85;18.27;;;-4.10;99.90;;;;;;5072917;28;20130;-61
2022/03/05 05:51:35;;;;;;;41.35;20.17;;;-4.20;99.90;;;;;;5062368;28;20053;-61
2022/03/05 05:54:03;;;;;;;45.40;20.92;;;-4.20;99.90;;;;;;5032136;28;20106;-61
2022/03/05 05:56:30;;;;;;;37.15;20.23;;;-4.20;99.90;;;;;;5033573;28;20059;-61
2022/03/05 05:58:57;;;;;;;42.65;20.77;;;-4.30;99.90;;;;;;5032301;28;20053;-59
2022/03/05 06:01:25;;;;;;;42.53;21.60;;;-4.30;99.90;;;;;;5052235;28;20059;-62
2022/03/05 06:03:53;;;;;;;42.53;21.42;;;-4.30;99.90;;;;;;5051177;28;20056;-61
2022/03/05 06:06:21;;;;;;;44.38;20.35;;;-4.30;99.90;;;;;;5051635;28;20048;-61
2022/03/05 06:08:48;;;;;;;46.50;20.23;;;-4.30;99.90;;;;;;5052073;28;20553;-61
2022/03/05 06:11:15;;;;;;;41.47;20.95;;;-4.40;99.90;;;;;;5053286;28;20043;-62
2022/03/05 06:13:42;;;;;;;47.70;21.00;;;-4.30;99.90;;;;;;5051943;28;20693;-62
2022/03/05 06:16:12;;;;;;;42.25;22.30;;;-4.30;99.90;;;;;;5052787;28;20049;-61
2022/03/05 06:18:39;;;;;;;40.22;20.17;;;-4.30;99.90;;;;;;5053384;28;20042;-59
2022/03/05 06:21:06;;;;;;;42.75;20.80;;;-4.30;99.90;;;;;;5052311;28;20051;-59
2022/03/05 06:23:33;;;;;;;46.67;21.42;;;-4.30;99.90;;;;;;5052238;28;20049;-61
2022/03/05 06:26:00;;;;;;;40.05;19.38;;;-4.20;99.90;;;;;;5052390;28;20569;-58
2022/03/05 06:28:28;;;;;;;42.75;21.45;;;-4.10;99.90;;;;;;5052181;28;20049;-58
2022/03/05 06:30:55;;;;;;;34.67;18.25;;;-4.00;99.90;;;;;;5052758;28;20083;-58
2022/03/05 06:33:22;;;;;;;36.85;17.17;;;-3.90;99.90;;;;;;5057878;28;20155;-58
2022/03/05 06:35:49;;;;;;;41.70;20.55;;;-3.80;99.90;;;;;;5051963;28;20116;-58
2022/03/05 06:38:17;;;;;;;39.95;19.17;;;-3.70;99.90;;;;;;5060567;28;20040;-60
2022/03/05 06:40:45;;;;;;;39.88;19.65;;;-3.50;99.90;;;;;;5072856;28;20163;-54
2022/03/05 06:43:13;;;;;;;36.95;19.35;;;-3.30;99.90;;;;;;5071494;28;20050;-53
2022/03/05 06:45:40;;;;;;;39.08;19.80;;;-3.00;99.90;;;;;;5072969;28;20775;-55
2022/03/05 06:48:07;;;;;;;41.65;19.13;;;-2.70;99.90;;;;;;5073077;28;20146;-55
2022/03/05 06:50:34;;;;;;;41.80;19.80;;;-2.30;99.90;;;;;;5071798;28;20055;-54
2022/03/05 06:53:01;;;;;;;43.67;20.58;;;-2.00;99.90;;;;;;5047723;28;20091;-55
2022/03/05 06:55:28;;;;;;;37.75;18.88;;;-1.60;99.90;;;;;;5032441;28;20501;-55
2022/03/05 06:57:56;;;;;;;49.85;22.83;;;-1.30;99.90;;;;;;5032153;28;20550;-55
2022/03/05 07:00:22;;;;;;;40.53;20.77;;;-0.90;99.90;;;;;;5034495;28;20166;-55
2022/03/05 07:02:50;;;;;;;37.10;19.33;;;-0.60;99.90;;;;;;5036898;28;20048;-55
2022/03/05 07:05:17;;;;;;;39.00;19.40;;;-0.30;99.90;;;;;;5031350;28;20033;-56
2022/03/05 07:07:44;;;;;;;;;;;-0.10;99.90;;;;;;5032581;28;20072;-52
2022/03/05 07:10:11;;;;;;;34.10;18.08;;;0.10;99.90;;;;;;5032163;28;19956;-56
2022/03/05 07:12:39;;;;;;;43.95;19.88;;;0.40;99.90;;;;;;5033495;28;20047;-60
2022/03/05 07:15:07;;;;;;;37.65;20.35;;;0.60;99.90;;;;;;5031632;28;20041;-55
2022/03/05 07:17:34;;;;;;;41.88;19.35;;;0.70;99.90;;;;;;5032283;28;20125;-55
2022/03/05 07:20:01;;;;;;;38.28;19.88;;;0.90;99.90;;;;;;5035113;28;20056;-56
2022/03/05 07:22:28;;;;;;;43.92;20.38;;;1.00;99.90;;;;;;5036664;28;20120;-56
2022/03/05 07:24:54;;;;;;;;;;;1.20;99.50;;;;;;5036373;28;20048;-56
2022/03/05 07:27:21;;;;;;;33.88;18.02;;;1.40;98.30;;;;;;5035079;28;20293;-58
2022/03/05 07:29:48;;;;;;;35.63;18.35;;;1.50;97.40;;;;;;5036556;28;20056;-56
2022/03/05 07:32:15;;;;;;;37.22;19.95;;;1.70;96.90;;;;;;5036191;28;20041;-56
2022/03/05 07:34:42;;;;;;;43.67;20.85;;;1.70;96.50;;;;;;5057715;28;20040;-56
2022/03/05 07:37:09;;;;;;;35.47;18.85;;;1.80;95.90;;;;;;5055751;28;20036;-56
2022/03/05 07:39:35;;;;;;;37.28;19.30;;;1.90;95.60;;;;;;5074575;28;20051;-56
2022/03/05 07:42:04;;;;;;;40.08;19.20;;;2.00;95.30;;;;;;5076061;28;20071;-54
2022/03/05 07:44:33;;;;;;;34.63;19.13;;;2.20;95.00;;;;;;5074214;28;20050;-55
2022/03/05 07:47:01;;;;;;;34.85;17.98;;;2.40;94.40;;;;;;5074710;28;20044;-57
2022/03/05 07:49:28;;;;;;;34.38;17.77;;;2.60;94.00;;;;;;5072038;28;20060;-54
2022/03/05 07:51:56;;;;;;;37.30;18.45;;;2.80;93.90;;;;;;5037418;28;20927;-54
2022/03/05 07:54:24;;;;;;;29.63;15.77;;;3.00;93.00;;;;;;5050565;28;20044;-55
2022/03/05 07:56:51;;;;;;;32.22;17.45;;;3.20;92.30;;;;;;5054010;28;20118;-55
2022/03/05 07:59:19;;;;;;;32.03;17.05;;;3.50;92.30;;;;;;5054193;28;20052;-55
2022/03/05 08:01:46;;;;;;;33.35;18.10;;;3.80;91.10;;;;;;5062607;28;20075;-55
2022/03/05 08:04:13;;;;;;;32.50;16.05;;;4.10;90.10;;;;;;5052914;28;20060;-54
2022/03/05 08:06:40;;;;;;;28.23;16.00;;;4.40;89.90;;;;;;5055857;28;20565;-55
2022/03/05 08:09:07;;;;;;;34.13;18.23;;;4.70;87.30;;;;;;5055440;28;20139;-55
2022/03/05 08:11:35;;;;;;;37.60;18.38;;;4.90;88.10;;;;;;5055126;28;20036;-55
2022/03/05 08:14:03;;;;;;;29.08;15.57;;;5.20;84.80;;;;;;5054364;28;20059;-56
2022/03/05 08:16:31;;;;;;;32.15;16.60;;;5.40;83.00;;;;;;5055431;28;20044;-56
2022/03/05 08:18:59;;;;;;;31.55;17.83;;;5.50;82.10;;;;;;5055253;28;20051;-57
2022/03/05 08:21:27;;;;;;;28.75;16.50;;;5.60;81.50;;;;;;5055219;28;20058;-56
2022/03/05 08:23:55;;;;;;;33.78;17.35;;;5.80;79.10;;;;;;5055105;28;20055;-56
2022/03/05 08:26:22;;;;;;;29.23;16.70;;;5.80;78.20;;;;;;5037906;28;20053;-53
2022/03/05 08:28:49;;;;;;;26.50;14.70;;;5.80;77.60;;;;;;5056648;28;20052;-56
2022/03/05 08:31:16;;;;;;;31.23;16.85;;;5.90;79.00;;;;;;5052532;28;20045;-55
2022/03/05 08:33:43;;;;;;;29.83;16.15;;;6.00;78.40;;;;;;5059851;28;20048;-59
2022/03/05 08:36:10;;;;;;;;;;;6.00;75.40;;;;;;5055652;28;20055;-56
2022/03/05 08:38:39;;;;;;;25.90;15.45;;;6.00;76.20;;;;;;5065143;28;19931;-57
2022/03/05 08:41:07;;;;;;;25.27;14.05;;;6.10;75.40;;;;;;5075117;28;20048;-58
2022/03/05 08:43:35;;;;;;;23.10;14.18;;;6.40;75.80;;;;;;5071957;28;20602;-58
2022/03/05 08:46:04;;;;;;;32.63;15.05;;;6.50;73.50;;;;;;5075172;28;20044;-57
2022/03/05 08:48:31;;;;;;;26.42;15.55;;;6.60;72.60;;;;;;5073219;28;20207;-58
2022/03/05 08:50:58;;;;;;;26.70;15.15;;;6.60;71.50;;;;;;5073823;28;20051;-58
2022/03/05 08:53:25;;;;;;;;;;;6.70;71.90;;;;;;5041335;28;20053;-58
2022/03/05 08:55:52;;;;;;;27.83;16.70;;;6.50;70.50;;;;;;5034329;28;20426;-58
2022/03/05 08:58:19;;;;;;;23.17;13.88;;;6.40;70.70;;;;;;5033912;28;20036;-58
2022/03/05 09:00:47;;;;;;;28.23;16.45;;;6.40;70.30;;;;;;5048297;28;20154;-58
2022/03/05 09:03:15;;;;;;;26.80;15.10;;;6.40;71.60;;;;;;5053574;28;20094;-58
2022/03/05 09:05:43;;;;;;;29.35;15.15;;;6.50;71.00;;;;;;5052479;28;20048;-56
2022/03/05 09:08:10;;;;;;;23.70;13.98;;;6.60;69.30;;;;;;5054199;28;20044;-59
2022/03/05 09:10:37;;;;;;;25.00;14.13;;;6.80;71.50;;;;;;5054259;28;20055;-57
2022/03/05 09:13:04;;;;;;;26.52;15.93;;;7.20;69.80;;;;;;5053294;28;20631;-60
2022/03/05 09:15:31;;;;;;;28.65;15.35;;;7.40;71.20;;;;;;5054632;28;20048;-57
2022/03/05 09:17:58;;;;;;;25.20;16.08;;;7.60;70.70;;;;;;5052584;28;20037;-55
2022/03/05 09:20:25;;;;;;;29.33;18.02;;;8.00;69.70;;;;;;5054059;28;20076;-57
2022/03/05 09:22:53;;;;;;;29.52;15.20;;;8.20;66.90;;;;;;5053627;28;20044;-56
2022/03/05 09:25:20;;;;;;;29.95;15.45;;;8.20;64.40;;;;;;5053812;28;20037;-58
2022/03/05 09:27:47;;;;;;;;;;;8.20;64.10;;;;;;5054167;28;20082;-55
2022/03/05 09:30:14;;;;;;;26.02;14.75;;;8.10;64.80;;;;;;5051496;28;19920;-57
2022/03/05 09:32:41;;;;;;;26.23;16.10;;;8.20;65.40;;;;;;5052781;28;20048;-58
2022/03/05 09:35:09;;;;;;;24.70;15.00;;;8.30;62.10;;;;;;5035152;28;20709;-66
2022/03/05 09:37:35;;;;;;;30.70;16.58;;;8.10;62.70;;;;;;5035330;28;20053;-57
2022/03/05 09:40:09;;;;;;;25.88;15.98;;;8.20;62.80;;;;;;5052404;28;20133;-57
2022/03/05 09:42:40;;;;;;;27.02;16.70;;;8.30;61.40;;;;;;5052446;28;20063;-58
2022/03/05 09:45:08;;;;;;;24.08;15.05;;;8.40;62.10;;;;;;5050196;28;20052;-52
2022/03/05 09:47:38;;;;;;;28.92;16.45;;;8.70;63.80;;;;;;5052539;28;20056;-52
2022/03/05 09:50:07;;;;;;;27.55;16.02;;;9.10;62.40;;;;;;5052224;28;20048;-57
2022/03/05 09:52:37;;;;;;;24.75;15.13;;;9.40;60.40;;;;;;5044422;28;20102;-58
2022/03/05 09:55:05;;;;;;;25.52;14.88;;;9.70;58.90;;;;;;5030960;28;20025;-58
2022/03/05 09:57:32;;;;;;;31.85;15.77;;;9.90;59.30;;;;;;5031315;28;20045;-58
2022/03/05 10:00:00;;;;;;;38.25;16.83;;;10.20;58.00;;;;;;5036105;28;20045;-58
2022/03/05 10:02:27;;;;;;;41.42;16.38;;;10.40;56.60;;;;;;5036188;28;20533;-58
2022/03/05 10:05:21;;;;;;;29.77;17.23;;;10.60;54.70;;;;;;5015085;28;20076;-57
2022/03/05 10:08:00;;;;;;;24.63;15.77;;;10.70;52.50;;;;;;5033572;28;20041;-57
2022/03/05 10:10:28;;;;;;;29.65;16.35;;;10.60;52.50;;;;;;5033826;28;20136;-58
2022/03/05 10:12:55;;;;;;;27.20;16.40;;;10.70;53.50;;;;;;5031851;28;20478;-59
2022/03/05 10:15:23;;;;;;;27.75;16.25;;;10.80;54.00;;;;;;5032287;28;20056;-59
2022/03/05 10:17:57;;;;;;;26.75;15.82;;;11.00;54.30;;;;;;5031579;28;20045;-58
2022/03/05 10:20:27;;;;;;;27.27;15.93;;;11.10;53.60;;;;;;5031577;28;20061;-58
2022/03/05 10:22:55;;;;;;;25.85;16.90;;;11.20;53.10;;;;;;5033230;28;20077;-58
2022/03/05 10:25:50;;;;;;;29.27;16.30;;;11.30;52.10;;;;;;5033216;28;20075;-60
2022/03/05 10:28:20;;;;;;;26.48;15.93;;;11.40;52.40;;;;;;5032846;28;20052;-58
2022/03/05 10:31:02;;;;;;;29.90;17.35;;;11.40;51.30;;;;;;5032841;28;20698;-58
2022/03/05 10:33:41;;;;;;;25.48;16.85;;;11.30;50.50;;;;;;5045287;28;20123;-59
2022/03/05 10:36:18;;;;;;;28.70;17.23;;;11.00;49.90;;;;;;5052801;28;20044;-58
2022/03/05 10:38:46;;;;;;;25.80;17.58;;;10.80;50.90;;;;;;5064877;28;20044;-58
2022/03/05 10:41:22;;;;;;;27.00;16.83;;;10.70;52.50;;;;;;5072873;28;20048;-58
2022/03/05 10:44:07;;;;;;;25.02;15.95;;;10.70;52.10;;;;;;5072518;28;20795;-58
2022/03/05 10:46:40;;;;;;;27.25;16.58;;;10.80;53.00;;;;;;5073225;28;20560;-58
2022/03/05 10:49:19;;;;;;;30.17;16.55;;;11.00;53.40;;;;;;5073270;28;20051;-58
2022/03/05 10:52:04;;;;;;;30.17;17.02;;;11.10;52.70;;;;;;5065192;28;20767;-58
2022/03/05 10:54:42;;;;;;;23.65;16.33;;;11.20;51.30;;;;;;5036270;28;20102;-57
2022/03/05 10:57:22;;;;;;;24.25;15.90;;;11.10;53.00;;;;;;5037132;28;20625;-58
2022/03/05 10:59:54;;;;;;;29.70;17.20;;;10.90;53.50;;;;;;5038016;28;20033;-58
2022/03/05 11:02:22;;;;;;;28.58;17.05;;;10.80;53.90;;;;;;5061962;28;20052;-58
2022/03/05 11:04:50;;;;;;;27.55;16.95;;;10.80;51.90;;;;;;5055419;28;20119;-58
2022/03/05 11:07:19;;;;;;;29.67;17.52;;;10.70;52.40;;;;;;5040668;28;20048;-59
2022/03/05 11:09:49;;;;;;;25.67;16.63;;;10.60;52.50;;;;;;5035474;28;20523;-60
2022/03/05 11:12:18;;;;;;;29.33;18.33;;;10.60;53.20;;;;;;5041984;28;20566;-60
2022/03/05 11:14:51;;;;;;;27.63;15.98;;;10.60;53.40;;;;;;5034737;28;20048;-58
2022/03/05 11:17:19;;;;;;;28.23;18.48;;;10.90;52.60;;;;;;5049839;28;20044;-58
2022/03/05 11:19:47;;;;;;;30.60;18.10;;;11.10;52.40;;;;;;5039004;28;20136;-58
2022/03/05 11:22:15;;;;;;;28.58;18.85;;;11.20;51.50;;;;;;5039679;28;20049;-59
2022/03/05 11:24:43;;;;;;;29.02;18.08;;;11.20;52.40;;;;;;5068387;28;20049;-58
2022/03/05 11:27:15;;;;;;;28.80;17.63;;;11.40;51.50;;;;;;5055751;28;20127;-58
2022/03/05 11:29:55;;;;;;;32.28;18.65;;;11.40;51.40;;;;;;5061950;28;20047;-58
2022/03/05 11:32:27;;;;;;;27.13;17.55;;;11.50;51.30;;;;;;5056660;28;20044;-58
2022/03/05 11:34:55;;;;;;;28.20;18.55;;;11.60;51.40;;;;;;5061202;28;20044;-58
2022/03/05 11:37:34;;;;;;;26.65;17.60;;;11.80;51.50;;;;;;5056368;28;20064;-58
2022/03/05 11:40:07;;;;;;;25.15;16.10;;;11.90;48.60;;;;;;5056148;28;20041;-57
2022/03/05 11:42:36;;;;;;;30.88;19.90;;;11.90;49.10;;;;;;5055182;28;20637;-56
2022/03/05 11:45:26;;;;;;;26.63;18.08;;;12.10;48.60;;;;;;5054451;28;20072;-59
2022/03/05 11:48:14;;;;;;;33.70;20.08;;;12.10;47.20;;;;;;5042975;28;20879;-59
2022/03/05 11:50:50;;;;;;;32.17;21.42;;;12.00;47.40;;;;;;5034502;28;20478;-58
2022/03/05 11:53:18;;;;;;;32.20;21.30;;;11.90;47.00;;;;;;5062900;28;20438;-58
2022/03/05 11:55:46;;;;;;;32.03;20.55;;;11.90;46.50;;;;;;5051804;28;20083;-58
2022/03/05 11:58:13;;;;;;;33.83;22.55;;;11.80;45.40;;;;;;5035098;28;20051;-57
2022/03/05 12:00:41;;;;;;;;;;;11.70;46.50;;;;;;5048221;28;20040;-57
2022/03/05 12:03:08;;;;;;;28.98;20.17;;;11.80;48.00;;;;;;5033332;28;19939;-57
2022/03/05 12:05:38;;;;;;;30.33;20.40;;;11.70;46.10;;;;;;5033374;28;20539;-57
2022/03/05 12:08:21;;;;;;;32.25;20.50;;;11.50;46.90;;;;;;5035311;28;20049;-57
2022/03/05 12:11:10;;;;;;;31.13;19.45;;;11.50;47.10;;;;;;5035127;28;20049;-57
2022/03/05 12:13:52;;;;;;;25.52;17.08;;;11.50;46.70;;;;;;5035157;28;20064;-57
2022/03/05 12:16:30;;;;;;;27.98;18.70;;;11.50;46.00;;;;;;5034869;28;20033;-57
2022/03/05 12:18:58;;;;;;;28.98;19.40;;;11.60;45.40;;;;;;5018420;28;20045;-57
2022/03/05 12:21:34;;;;;;;29.75;20.50;;;11.70;46.30;;;;;;5035830;28;20107;-57
2022/03/05 12:24:09;;;;;;;31.42;19.25;;;11.50;45.40;;;;;;5017148;28;20125;-56
2022/03/05 12:26:40;;;;;;;28.80;18.13;;;11.40;46.80;;;;;;5049741;28;20091;-55
2022/03/05 12:29:08;;;;;;;31.02;19.30;;;11.30;46.20;;;;;;5050125;28;20751;-55
2022/03/05 12:31:43;;;;;;;27.10;18.52;;;11.20;44.90;;;;;;5055341;28;20080;-57
2022/03/05 12:34:11;;;;;;;29.88;17.05;;;11.10;46.40;;;;;;5059900;28;20040;-56
2022/03/05 12:36:46;;;;;;;32.83;18.33;;;10.90;46.10;;;;;;5053405;28;20044;-55
2022/03/05 12:39:14;;;;;;;31.90;17.70;;;10.90;44.90;;;;;;5055129;28;20086;-56
2022/03/05 12:41:48;;;;;;;34.55;20.00;;;10.60;45.70;;;;;;5053804;28;20048;-55
2022/03/05 12:44:15;;;;;;;28.67;18.23;;;10.50;47.00;;;;;;5054014;28;20156;-55
2022/03/05 12:46:42;;;;;;;28.20;18.10;;;10.40;45.70;;;;;;5052924;28;20051;-55
2022/03/05 12:49:10;;;;;;;25.98;17.35;;;10.40;46.20;;;;;;5053736;28;20048;-56